Time;durP1;ratioP1;P1;durP2;ratioP2;P2;SDS_P1;SDS_P2;PMS_P1;PMS_P2;Temp;Humidity;BMP_temperature;BMP_pressure;BME280_temperature;BME280_humidity;BME280_pressure;Samples;Min_cycle;Max_cycle;Signal;HPM_P1;HPM_P2
2022/09/15 00:02:11;;;;;;;8.95;2.38;;;16.90;99.90;;;;;;20723207;28;20038;-59
2022/09/15 00:12:13;;;;;;;7.05;2.15;;;16.80;99.90;;;;;;20739364;28;20034;-49
2022/09/15 00:22:18;;;;;;;12.73;2.85;;;16.90;99.90;;;;;;20722467;28;20166;-48
2022/09/15 00:32:21;;;;;;;12.45;2.53;;;16.80;99.90;;;;;;20711948;28;20037;-59
2022/09/15 00:42:25;;;;;;;12.07;2.00;;;16.70;99.90;;;;;;20706193;28;20092;-59
2022/09/15 00:52:36;;;;;;;10.30;2.63;;;16.70;99.90;;;;;;20736929;28;20499;-46
2022/09/15 01:02:41;;;;;;;8.50;2.33;;;16.90;99.90;;;;;;20718127;28;20038;-46
2022/09/15 01:12:43;;;;;;;9.27;2.08;;;16.90;99.90;;;;;;20638389;28;20043;-60
2022/09/15 01:23:24;;;;;;;12.02;2.40;;;16.90;99.90;;;;;;20726169;28;20424;-59
2022/09/15 01:33:26;;;;;;;;;;;16.80;99.90;;;;;;20734154;28;20099;-58
2022/09/15 01:43:32;;;;;;;7.90;2.22;;;16.90;99.90;;;;;;20732226;28;19909;-59
2022/09/15 01:53:35;;;;;;;7.25;2.25;;;16.90;99.90;;;;;;20748478;28;20053;-48
2022/09/15 02:03:49;;;;;;;7.65;1.95;;;16.90;99.90;;;;;;20731559;28;20096;-59
2022/09/15 02:13:55;;;;;;;9.35;2.20;;;16.90;99.90;;;;;;20746961;28;20554;-59
2022/09/15 02:24:09;;;;;;;13.75;2.28;;;16.90;99.90;;;;;;20729884;28;20093;-59
2022/09/15 02:34:25;;;;;;;9.38;2.75;;;16.80;99.90;;;;;;20745379;28;20622;-59
2022/09/15 02:44:29;;;;;;;6.50;1.73;;;16.80;99.90;;;;;;20712384;28;20069;-59
2022/09/15 02:54:32;;;;;;;7.00;1.90;;;17.00;99.90;;;;;;20727271;28;20557;-47
2022/09/15 03:04:35;;;;;;;11.63;2.40;;;16.80;99.90;;;;;;20726578;28;20041;-46
2022/09/15 03:14:38;;;;;;;8.07;2.05;;;16.80;99.90;;;;;;20742319;28;20080;-46
2022/09/15 03:24:41;;;;;;;11.48;2.30;;;16.80;99.90;;;;;;20727030;28;20467;-48
2022/09/15 03:34:44;;;;;;;8.95;2.17;;;16.70;99.90;;;;;;20741080;28;20546;-47
2022/09/15 03:44:46;;;;;;;6.53;2.03;;;16.50;99.90;;;;;;20741242;28;20084;-47
2022/09/15 03:54:49;;;;;;;9.88;2.00;;;16.70;99.90;;;;;;20739765;28;20050;-59
2022/09/15 04:04:51;;;;;;;9.18;2.05;;;16.70;99.90;;;;;;20722280;28;20084;-46
2022/09/15 04:14:53;;;;;;;10.07;1.90;;;16.70;99.90;;;;;;20738804;28;20386;-46
2022/09/15 04:24:56;;;;;;;6.97;1.77;;;16.70;99.90;;;;;;20738375;28;20089;-48
2022/09/15 04:34:59;;;;;;;8.15;1.83;;;16.70;99.90;;;;;;20737916;28;20042;-46
2022/09/15 04:45:01;;;;;;;10.75;2.28;;;16.80;99.90;;;;;;20721289;28;20042;-60
2022/09/15 04:55:04;;;;;;;7.53;2.05;;;16.80;99.90;;;;;;20720635;28;20084;-48
2022/09/15 05:05:07;;;;;;;5.50;1.70;;;16.80;99.90;;;;;;20739098;28;20034;-59
2022/09/15 05:15:10;;;;;;;8.27;1.77;;;16.70;99.90;;;;;;20737028;28;20061;-45
2022/09/15 05:25:14;;;;;;;8.48;2.20;;;16.70;99.90;;;;;;20750957;28;20033;-59
2022/09/15 05:35:16;;;;;;;10.63;1.80;;;16.70;99.90;;;;;;20749802;28;20125;-46
2022/09/15 05:45:19;;;;;;;7.68;1.73;;;16.80;99.90;;;;;;20732593;28;20073;-46
2022/09/15 05:55:22;;;;;;;8.20;1.83;;;16.60;99.90;;;;;;20748481;28;20042;-60
2022/09/15 06:05:24;;;;;;;5.75;1.85;;;16.60;99.90;;;;;;20731342;28;20038;-60
2022/09/15 06:15:27;;;;;;;6.05;1.63;;;16.70;99.90;;;;;;20730254;28;20038;-46
2022/09/15 06:25:30;;;;;;;7.35;1.83;;;16.70;99.90;;;;;;20730165;28;20104;-59
2022/09/15 06:35:32;;;;;;;6.80;1.77;;;16.80;99.90;;;;;;20744541;28;20030;-60
2022/09/15 06:45:35;;;;;;;7.82;1.75;;;17.20;99.90;;;;;;20727885;28;20037;-58
2022/09/15 06:55:37;;;;;;;5.53;1.23;;;17.80;99.90;;;;;;20743435;28;20050;-59
2022/09/15 07:05:42;;;;;;;7.32;1.60;;;18.30;99.90;;;;;;20727585;28;20081;-47
2022/09/15 07:15:53;;;;;;;9.02;1.77;;;19.30;99.90;;;;;;20743182;28;20089;-46
2022/09/15 07:26:11;;;;;;;6.25;1.40;;;19.60;99.90;;;;;;20741376;28;20042;-60
2022/09/15 07:36:15;;;;;;;4.32;1.15;;;20.90;99.90;;;;;;20724183;28;20038;-46
2022/09/15 07:46:19;;;;;;;5.47;1.20;;;20.70;99.90;;;;;;20722217;28;20046;-60
2022/09/15 07:56:22;;;;;;;2.53;1.02;;;21.40;99.90;;;;;;20739410;28;20084;-60
2022/09/15 08:06:26;;;;;;;5.32;1.73;;;21.80;99.90;;;;;;20722564;28;20390;-46
2022/09/15 08:16:28;;;;;;;3.67;1.27;;;20.70;99.90;;;;;;20722338;28;20065;-51
2022/09/15 08:26:31;;;;;;;3.90;1.40;;;21.80;99.90;;;;;;20738484;28;20037;-61
2022/09/15 08:36:34;;;;;;;3.53;1.48;;;22.30;99.90;;;;;;20721810;28;20041;-60
2022/09/15 08:46:46;;;;;;;4.30;1.20;;;21.80;99.90;;;;;;20738027;28;20107;-48
2022/09/15 08:56:49;;;;;;;7.60;1.02;;;21.30;99.90;;;;;;20748794;28;20038;-60
2022/09/15 09:07:18;;;;;;;5.97;1.33;;;22.20;99.90;;;;;;20752386;28;20030;-48
2022/09/15 09:17:41;;;;;;;4.07;1.33;;;22.50;99.90;;;;;;20735141;28;20038;-48
2022/09/15 09:27:45;;;;;;;5.40;1.60;;;22.20;99.90;;;;;;20751097;28;20038;-49
2022/09/15 09:37:51;;;;;;;3.20;1.02;;;21.70;99.90;;;;;;20750765;28;20383;-47
2022/09/15 09:47:59;;;;;;;5.53;1.30;;;21.80;99.70;;;;;;20748572;28;20117;-46
2022/09/15 09:58:16;;;;;;;4.57;1.38;;;22.80;99.90;;;;;;20731250;28;20064;-62
2022/09/15 10:08:19;;;;;;;3.47;1.50;;;24.90;99.90;;;;;;20746473;28;20037;-48
2022/09/15 10:18:36;;;;;;;5.55;1.50;;;25.80;99.70;;;;;;20747834;28;20471;-61
2022/09/15 10:28:39;;;;;;;4.93;1.63;;;24.50;98.90;;;;;;20713843;28;20041;-48
2022/09/15 10:38:48;;;;;;;6.25;1.58;;;23.30;99.90;;;;;;20712677;28;20084;-61
2022/09/15 10:49:13;;;;;;;4.07;1.50;;;24.40;99.90;;;;;;20743894;28;20499;-61
2022/09/15 10:59:34;;;;;;;5.68;1.60;;;25.40;99.90;;;;;;20727104;28;20038;-47
2022/09/15 11:10:09;;;;;;;7.97;1.88;;;26.30;99.90;;;;;;20743003;28;20038;-47
2022/09/15 11:20:58;;;;;;;7.07;2.30;;;27.10;99.40;;;;;;20725641;28;20038;-46
2022/09/15 11:31:26;;;;;;;7.28;2.78;;;27.30;98.90;;;;;;20412080;29;20055;-48
2022/09/15 11:41:55;;;;;;;8.75;3.92;;;26.10;98.60;;;;;;20427329;29;20092;-51
2022/09/15 11:52:21;;;;;;;11.80;4.40;;;24.50;99.90;;;;;;20394753;29;20459;-60
2022/09/15 12:02:42;;;;;;;12.57;4.75;;;24.30;99.90;;;;;;20704289;28;20403;-61
2022/09/15 12:12:45;;;;;;;14.10;4.85;;;23.50;99.90;;;;;;20722318;28;20029;-61
2022/09/15 12:23:03;;;;;;;11.02;4.78;;;22.80;99.90;;;;;;20738390;28;20555;-61
2022/09/15 12:33:39;;;;;;;7.03;3.90;;;23.10;99.90;;;;;;20752127;28;20410;-46
2022/09/15 12:43:52;;;;;;;8.48;3.35;;;23.30;99.90;;;;;;20737507;28;20030;-61
2022/09/15 12:54:06;;;;;;;10.05;3.28;;;23.30;99.90;;;;;;20736652;28;20491;-61
2022/09/15 13:04:09;;;;;;;9.35;3.72;;;23.40;99.90;;;;;;20752167;28;20343;-61
2022/09/15 13:14:36;;;;;;;8.35;3.92;;;23.50;99.90;;;;;;20751702;28;20113;-47
2022/09/15 13:25:12;;;;;;;9.20;4.07;;;22.90;99.90;;;;;;20728546;28;20436;-61
2022/09/15 13:35:39;;;;;;;8.77;4.32;;;22.60;99.90;;;;;;20733593;28;20034;-48
2022/09/15 13:46:10;;;;;;;12.10;3.80;;;22.20;99.90;;;;;;20731745;28;20450;-61
2022/09/15 13:56:28;;;;;;;11.40;4.40;;;21.70;99.90;;;;;;20667937;28;20039;-61
2022/09/15 14:06:41;;;;;;;7.67;3.53;;;21.50;99.90;;;;;;20667116;28;20395;-61
2022/09/15 14:16:48;;;;;;;6.03;3.53;;;21.30;99.90;;;;;;20649914;28;20035;-46
2022/09/15 14:26:51;;;;;;;4.78;2.55;;;21.30;99.90;;;;;;20665762;28;20096;-48
2022/09/15 14:37:06;;;;;;;7.75;3.65;;;21.80;99.90;;;;;;20648430;28;20039;-48
2022/09/15 14:47:17;;;;;;;8.52;4.18;;;21.10;99.90;;;;;;20657461;28;20487;-48
2022/09/15 14:57:23;;;;;;;8.48;4.40;;;20.40;99.90;;;;;;20743699;28;20042;-61
2022/09/15 15:07:29;;;;;;;7.72;4.60;;;20.10;99.90;;;;;;20743083;28;20173;-61
2022/09/15 15:17:46;;;;;;;10.60;5.75;;;19.90;99.90;;;;;;20742409;28;20513;-61
2022/09/15 15:27:57;;;;;;;11.30;6.78;;;19.30;99.90;;;;;;20741997;28;20037;-46
2022/09/15 15:38:24;;;;;;;8.15;6.10;;;18.90;99.90;;;;;;20741200;28;20065;-60
2022/09/15 15:48:28;;;;;;;8.85;6.55;;;18.60;99.90;;;;;;20740089;28;20050;-60
2022/09/15 15:58:32;;;;;;;12.95;7.97;;;18.50;99.90;;;;;;20740205;28;20042;-46
2022/09/15 16:08:38;;;;;;;8.85;6.20;;;18.30;99.90;;;;;;20706173;28;20446;-60
2022/09/15 16:18:41;;;;;;;9.25;5.72;;;18.10;99.90;;;;;;20722448;28;20033;-48
2022/09/15 16:28:44;;;;;;;8.52;4.45;;;18.00;99.90;;;;;;20739779;28;20034;-47
2022/09/15 16:38:46;;;;;;;11.82;5.70;;;17.90;99.90;;;;;;20738034;28;20034;-48
2022/09/15 16:48:49;;;;;;;11.55;6.07;;;17.90;99.90;;;;;;20721617;28;20057;-47
2022/09/15 16:58:53;;;;;;;10.05;6.07;;;17.70;99.90;;;;;;20738335;28;20046;-48
2022/09/15 17:08:56;;;;;;;9.82;5.78;;;17.40;99.90;;;;;;20736836;28;20029;-50
2022/09/15 17:18:59;;;;;;;6.57;3.60;;;17.00;99.90;;;;;;20732676;28;20038;-46
2022/09/15 17:29:01;;;;;;;3.40;1.30;;;17.20;99.90;;;;;;20734483;28;20085;-46
2022/09/15 17:39:03;;;;;;;1.70;1.10;;;17.80;99.90;;;;;;20750322;28;20541;-45
2022/09/15 17:49:06;;;;;;;4.13;1.70;;;17.80;99.90;;;;;;20749432;28;20049;-47
2022/09/15 17:59:12;;;;;;;2.25;0.95;;;18.00;98.90;;;;;;20734001;28;20569;-47
2022/09/15 18:09:14;;;;;;;3.85;1.02;;;18.10;98.60;;;;;;20748108;28;20065;-48
2022/09/15 18:19:17;;;;;;;4.53;1.40;;;17.30;99.90;;;;;;20747229;28;20038;-49
2022/09/15 18:29:19;;;;;;;2.95;1.23;;;17.00;99.90;;;;;;20729251;28;20449;-47
2022/09/15 18:39:22;;;;;;;6.75;1.40;;;17.20;98.50;;;;;;20745673;28;20498;-48
2022/09/15 18:49:25;;;;;;;2.30;1.20;;;17.60;98.60;;;;;;20744351;28;20196;-46
2022/09/15 18:59:27;;;;;;;3.08;1.45;;;17.80;97.20;;;;;;20727684;28;20467;-46
2022/09/15 19:09:31;;;;;;;2.95;1.80;;;17.90;99.80;;;;;;20743122;28;20034;-47
2022/09/15 19:19:33;;;;;;;2.95;1.30;;;17.40;99.90;;;;;;20742000;28;20030;-46
2022/09/15 19:29:37;;;;;;;3.83;1.50;;;17.60;99.90;;;;;;20725249;28;20030;-59
2022/09/15 19:39:40;;;;;;;4.78;1.70;;;17.20;99.90;;;;;;20741033;28;20549;-47
2022/09/15 19:49:43;;;;;;;3.95;2.22;;;17.00;99.90;;;;;;20698886;28;20049;-51
2022/09/15 19:59:46;;;;;;;9.15;4.20;;;16.30;99.90;;;;;;20648407;28;20038;-50
2022/09/15 20:09:52;;;;;;;10.23;3.10;;;15.80;99.90;;;;;;20739185;28;20054;-48
2022/09/15 20:19:55;;;;;;;6.13;2.80;;;16.00;99.90;;;;;;20720133;28;20435;-47
2022/09/15 20:29:58;;;;;;;5.38;2.40;;;15.60;99.90;;;;;;20722072;28;20037;-59
2022/09/15 20:40:00;;;;;;;9.90;4.93;;;15.50;99.90;;;;;;20721679;28;20034;-58
2022/09/15 20:50:03;;;;;;;11.25;4.00;;;15.50;99.90;;;;;;20729181;28;20403;-46
2022/09/15 21:00:08;;;;;;;8.13;3.33;;;15.30;99.90;;;;;;20737714;28;20066;-46
2022/09/15 21:10:29;;;;;;;5.10;3.10;;;14.60;99.90;;;;;;20753448;28;20033;-58
2022/09/15 21:20:59;;;;;;;6.10;2.90;;;14.20;99.90;;;;;;20752491;28;20050;-48
2022/09/15 21:31:11;;;;;;;6.50;2.92;;;13.80;99.90;;;;;;20751590;28;20101;-46
2022/09/15 21:41:24;;;;;;;9.07;2.60;;;13.70;99.90;;;;;;20718567;28;20050;-50
2022/09/15 21:51:31;;;;;;;5.65;2.65;;;13.70;99.90;;;;;;20733620;28;20046;-49
2022/09/15 22:01:41;;;;;;;7.60;2.75;;;13.60;99.90;;;;;;20747868;28;20038;-45
2022/09/15 22:11:47;;;;;;;4.15;2.10;;;13.40;99.90;;;;;;20732008;28;20033;-52
2022/09/15 22:21:52;;;;;;;4.78;3.00;;;13.30;99.90;;;;;;20731257;28;20069;-59
2022/09/15 22:32:01;;;;;;;5.97;2.85;;;13.20;99.90;;;;;;20747524;28;20438;-58
2022/09/15 22:42:03;;;;;;;6.47;2.80;;;13.10;99.90;;;;;;20745137;28;20143;-47
2022/09/15 22:52:06;;;;;;;6.32;2.92;;;13.20;99.90;;;;;;20744303;28;20112;-46
2022/09/15 23:02:08;;;;;;;5.30;2.78;;;13.30;99.90;;;;;;20727126;28;20065;-46
2022/09/15 23:12:11;;;;;;;5.60;3.30;;;13.20;99.90;;;;;;20710616;28;20487;-59
2022/09/15 23:22:14;;;;;;;6.10;2.65;;;13.10;99.90;;;;;;20726785;28;20565;-59
2022/09/15 23:32:17;;;;;;;5.72;2.67;;;13.10;99.90;;;;;;20741539;28;20034;-58
2022/09/15 23:42:19;;;;;;;8.32;2.95;;;13.20;99.90;;;;;;20724199;28;20093;-59
2022/09/15 23:52:22;;;;;;;7.00;3.20;;;13.70;99.90;;;;;;20723578;28;20638;-59
